Time;durP1;ratioP1;P1;durP2;ratioP2;P2;SDS_P1;SDS_P2;PMS_P1;PMS_P2;Temp;Humidity;BMP_temperature;BMP_pressure;BME280_temperature;BME280_humidity;BME280_pressure;Samples;Min_cycle;Max_cycle;Signal;HPM_P1;HPM_P2
2022/07/30 00:00:19;;;;;;;5.80;4.03;;;;;;;20.19;42.02;100595.84;10458869;28;20311;-80
2022/07/30 00:05:26;;;;;;;5.22;4.00;;;;;;;19.92;42.96;100598.03;10446215;28;20255;-80
2022/07/30 00:10:29;;;;;;;6.35;3.70;;;;;;;19.72;43.66;100595.38;10471486;28;20230;-79
2022/07/30 00:15:31;;;;;;;9.27;4.05;;;;;;;19.80;42.79;100590.56;10477428;28;20254;-80
2022/07/30 00:20:33;;;;;;;9.50;4.50;;;;;;;19.79;42.61;100588.09;10475115;28;20251;-80
2022/07/30 00:25:36;;;;;;;8.60;4.43;;;;;;;19.69;42.66;100583.91;10481130;28;20685;-80
2022/07/30 00:30:39;;;;;;;9.70;4.88;;;;;;;19.72;42.43;100581.09;10456730;28;20778;-80
2022/07/30 00:35:44;;;;;;;7.10;4.43;;;;;;;19.50;43.50;100576.34;10434867;28;20235;-80
2022/07/30 00:40:48;;;;;;;7.65;4.28;;;;;;;19.27;44.72;100578.47;10460026;28;20262;-79
2022/07/30 00:45:53;;;;;;;8.07;4.50;;;;;;;19.21;44.77;100578.03;10446136;28;20234;-79
2022/07/30 00:50:55;;;;;;;15.68;5.38;;;;;;;19.27;44.34;100589.91;10471448;28;20254;-80
2022/07/30 00:55:58;;;;;;;8.85;4.68;;;;;;;19.31;44.08;100579.34;10501551;28;20538;-79
2022/07/30 01:01:00;;;;;;;6.82;5.00;;;;;;;19.20;44.51;100578.41;10448423;28;20242;-79
2022/07/30 01:06:03;;;;;;;10.75;5.20;;;;;;;19.42;43.87;100580.31;10454628;28;20231;-85
2022/07/30 01:11:05;;;;;;;10.20;5.15;;;;;;;19.06;44.98;100572.50;10492289;28;20191;-80
2022/07/30 01:16:09;;;;;;;7.55;5.05;;;;;;;19.17;44.63;100574.28;10477895;28;20554;-80
2022/07/30 01:21:14;;;;;;;7.10;4.88;;;;;;;19.25;44.65;100583.78;10509536;28;20251;-80
2022/07/30 01:26:18;;;;;;;6.72;4.65;;;;;;;19.27;44.74;100570.72;10472095;28;20199;-79
2022/07/30 01:31:22;;;;;;;8.93;5.18;;;;;;;18.94;45.56;100565.84;10473715;28;20218;-79
2022/07/30 01:36:26;;;;;;;11.07;5.63;;;;;;;18.87;45.52;100565.72;10474837;28;20255;-79
2022/07/30 01:41:29;;;;;;;6.93;4.97;;;;;;;18.94;45.54;100571.53;10498332;28;20304;-79
2022/07/30 01:46:32;;;;;;;13.00;5.45;;;;;;;18.76;45.83;100573.28;10484924;28;20203;-79
2022/07/30 01:51:36;;;;;;;6.57;4.50;;;;;;;17.30;50.00;100578.44;10479858;28;20240;-79
2022/07/30 01:56:40;;;;;;;8.55;4.82;;;;;;;17.19;50.25;100583.06;10489996;28;20238;-79
2022/07/30 02:01:42;;;;;;;7.03;4.85;;;;;;;17.08;50.68;100584.88;10482191;28;20712;-79
2022/07/30 02:06:47;;;;;;;8.55;5.40;;;;;;;16.87;51.71;100582.34;10506694;28;20227;-79
2022/07/30 02:17:22;;;;;;;7.22;5.45;;;;;;;18.09;48.09;100581.59;10511196;28;20217;-83
2022/07/30 02:22:33;;;;;;;6.57;5.20;;;;;;;18.25;47.57;100590.81;10498972;28;20206;-84
2022/07/30 02:27:37;;;;;;;10.30;5.22;;;;;;;17.98;48.54;100591.97;10500210;28;20660;-84
2022/07/30 02:32:41;;;;;;;8.37;5.63;;;;;;;18.18;47.73;100595.59;10468006;28;20218;-84
2022/07/30 02:37:46;;;;;;;9.80;5.85;;;;;;;18.01;48.03;100596.91;10477571;28;20225;-84
2022/07/30 02:42:50;;;;;;;7.85;5.60;;;;;;;17.71;48.79;100599.63;10513917;28;20214;-85
2022/07/30 02:48:06;;;;;;;8.68;5.82;;;;;;;17.70;48.96;100594.31;10492014;28;20203;-84
2022/07/30 02:53:12;;;;;;;6.82;5.57;;;;;;;17.96;48.22;100605.81;10511909;28;20721;-84
2022/07/30 02:58:19;;;;;;;6.82;6.10;;;;;;;17.83;48.57;100601.50;10488383;28;20280;-83
2022/07/30 03:03:27;;;;;;;7.55;6.20;;;;;;;17.97;47.98;100598.88;10485749;28;20550;-82
2022/07/30 03:08:31;;;;;;;8.43;6.32;;;;;;;17.77;48.24;100611.53;10452880;28;20218;-84
2022/07/30 03:13:33;;;;;;;7.80;6.15;;;;;;;17.76;48.40;100618.44;10484429;28;20461;-83
2022/07/30 03:18:38;;;;;;;12.40;6.93;;;;;;;17.85;48.05;100610.47;10481180;28;20491;-79
2022/07/30 03:23:41;;;;;;;10.27;6.82;;;;;;;16.52;52.08;100613.69;10468989;28;20637;-85
2022/07/30 03:28:45;;;;;;;8.27;6.27;;;;;;;17.46;49.26;100607.66;10472222;28;20537;-83
2022/07/30 03:33:47;;;;;;;9.05;6.55;;;;;;;17.78;48.19;100608.31;10435354;28;20245;-83
2022/07/30 03:38:50;;;;;;;8.20;6.40;;;;;;;17.56;48.75;100607.06;10504601;28;20243;-83
2022/07/30 03:43:53;;;;;;;7.10;6.00;;;;;;;17.76;48.30;100607.88;10464579;28;20257;-82
2022/07/30 03:48:56;;;;;;;10.98;7.50;;;;;;;17.69;48.42;100624.03;10489144;28;20251;-83
2022/07/30 03:54:00;;;;;;;10.57;6.97;;;;;;;17.39;49.08;100621.75;10463438;28;20199;-82
2022/07/30 03:59:23;;;;;;;9.27;6.93;;;;;;;17.11;50.34;100621.16;10468063;28;20260;-85
2022/07/30 04:04:26;;;;;;;7.18;6.40;;;;;;;17.38;49.71;100620.13;10503816;28;20194;-85
2022/07/30 04:09:30;;;;;;;9.60;6.53;;;;;;;17.62;48.68;100622.66;10467190;28;20223;-82
2022/07/30 04:14:43;;;;;;;10.48;7.97;;;;;;;15.95;54.26;100637.78;10496620;28;20611;-80
2022/07/30 04:19:49;;;;;;;12.85;7.40;;;;;;;15.96;54.53;100639.44;10483491;28;20536;-85
2022/07/30 04:24:52;;;;;;;11.27;7.32;;;;;;;16.03;54.53;100655.84;10478653;28;20221;-80
2022/07/30 04:29:55;;;;;;;13.43;7.35;;;;;;;16.09;54.33;100645.84;10501648;28;20183;-83
2022/07/30 04:34:57;;;;;;;11.00;7.90;;;;;;;15.98;54.87;100656.13;10498528;28;20240;-84
2022/07/30 04:40:23;;;;;;;13.60;7.78;;;;;;;15.89;54.88;100670.47;10492040;28;20258;-83
2022/07/30 04:45:26;;;;;;;11.68;7.85;;;;;;;15.97;55.00;100672.34;10480510;28;20183;-85
2022/07/30 04:50:33;;;;;;;10.25;7.28;;;;;;;15.93;55.46;100673.44;10484602;28;20195;-85
2022/07/30 04:55:39;;;;;;;9.53;7.93;;;;;;;15.88;55.98;100682.25;10465295;28;20232;-85
2022/07/30 05:00:43;;;;;;;14.25;8.05;;;;;;;15.98;56.18;100687.41;10460840;28;20250;-84
2022/07/30 05:05:49;;;;;;;9.10;8.18;;;;;;;15.69;57.16;100680.09;10468000;28;20287;-85
2022/07/30 05:10:59;;;;;;;13.83;9.13;;;;;;;16.20;56.08;100683.94;10486637;28;20243;-85
2022/07/30 05:16:01;;;;;;;14.15;9.80;;;;;;;16.07;57.05;100697.41;10458363;28;20253;-84
2022/07/30 05:21:04;;;;;;;12.10;10.13;;;;;;;16.18;57.05;100704.19;10518540;28;20618;-84
2022/07/30 05:26:10;;;;;;;12.45;9.55;;;;;;;16.07;58.07;100719.31;10460508;28;20199;-86
2022/07/30 05:31:20;;;;;;;14.13;9.95;;;;;;;15.86;59.16;100719.56;10466724;28;20276;-84
2022/07/30 05:36:31;;;;;;;13.50;10.73;;;;;;;16.02;58.98;100719.59;10487888;28;20195;-84
2022/07/30 05:41:34;;;;;;;13.82;11.10;;;;;;;16.39;58.33;100714.53;10466565;28;20554;-83
2022/07/30 05:46:54;;;;;;;14.95;11.43;;;;;;;15.91;59.81;100722.13;10460566;28;20226;-85
2022/07/30 05:51:57;;;;;;;18.48;13.23;;;;;;;16.32;59.60;100725.72;10480742;28;20206;-84
2022/07/30 05:57:00;;;;;;;22.65;12.85;;;;;;;17.70;55.03;100712.03;10476263;28;20190;-84
2022/07/30 06:02:08;;;;;;;18.17;13.48;;;;;;;17.73;55.11;100721.84;10462175;28;20601;-83
2022/07/30 06:07:29;;;;;;;14.88;13.00;;;;;;;17.85;54.70;100718.81;10490129;28;20643;-82
2022/07/30 06:12:33;;;;;;;19.02;14.10;;;;;;;17.68;55.65;100720.13;10471401;28;20187;-85
2022/07/30 06:17:46;;;;;;;19.50;14.73;;;;;;;18.22;53.99;100722.03;10446035;28;20199;-86
2022/07/30 06:23:17;;;;;;;21.95;15.05;;;;;;;17.36;56.23;100721.41;10463997;28;20312;-85
2022/07/30 06:28:46;;;;;;;22.33;14.80;;;;;;;17.76;56.14;100710.50;10443513;28;20207;-83
2022/07/30 06:33:54;;;;;;;21.83;16.83;;;;;;;18.03;55.27;100719.19;10470528;28;20241;-80
2022/07/30 06:38:57;;;;;;;29.38;16.90;;;;;;;17.34;57.18;100721.78;10454588;28;20875;-80
2022/07/30 06:44:13;;;;;;;27.02;18.48;;;;;;;18.45;54.54;100722.88;10483800;28;20304;-80
2022/07/30 06:49:36;;;;;;;26.10;17.90;;;;;;;18.69;53.68;100724.53;10469917;28;20231;-79
2022/07/30 06:54:40;;;;;;;30.75;20.90;;;;;;;18.98;52.56;100726.69;10462848;28;20222;-80
2022/07/30 06:59:50;;;;;;;41.50;26.13;;;;;;;18.67;53.69;100738.34;10479106;28;20288;-83
2022/07/30 07:05:07;;;;;;;44.80;29.25;;;;;;;18.17;55.44;100743.13;10438001;28;20811;-79
2022/07/30 07:10:10;;;;;;;43.17;30.10;;;;;;;18.37;54.90;100748.81;10421586;28;20192;-79
2022/07/30 07:15:20;;;;;;;53.60;35.13;;;;;;;17.46;57.27;100755.00;10452407;28;20220;-85
2022/07/30 07:20:38;;;;;;;58.90;38.55;;;;;;;18.31;55.03;100754.84;10487385;28;20250;-82
2022/07/30 07:25:43;;;;;;;60.90;41.67;;;;;;;18.41;54.61;100759.09;10442698;28;20284;-79
2022/07/30 07:30:46;;;;;;;56.38;38.90;;;;;;;18.08;55.10;100756.81;10462798;28;21311;-78
2022/07/30 07:35:49;;;;;;;62.20;41.50;;;;;;;18.50;54.66;100753.13;10471416;28;20231;-79
2022/07/30 07:41:01;;;;;;;62.80;44.60;;;;;;;18.80;54.21;100758.97;10457780;28;20344;-78
2022/07/30 07:46:05;;;;;;;62.40;44.72;;;;;;;18.85;54.11;100768.06;10451631;28;20234;-82
2022/07/30 07:51:10;;;;;;;60.50;43.05;;;;;;;18.79;52.51;100772.41;10422493;28;20219;-78
2022/07/30 07:56:13;;;;;;;60.63;42.22;;;;;;;18.96;51.75;100769.09;10424188;28;20246;-78
2022/07/30 08:01:16;;;;;;;54.70;40.08;;;;;;;18.76;52.19;100770.31;10431727;28;20328;-81
2022/07/30 08:06:37;;;;;;;57.88;41.17;;;;;;;18.90;51.79;100764.84;10350297;28;1075028;-80
2022/07/30 08:12:00;;;;;;;57.25;41.58;;;;;;;19.59;50.54;100762.72;10423118;28;20538;-78
2022/07/30 08:17:44;;;;;;;50.88;38.25;;;;;;;19.43;50.57;100770.63;10351552;28;20894;-79
2022/07/30 08:22:53;;;;;;;39.28;32.60;;;;;;;19.36;50.78;100782.78;10396350;28;20255;-78
2022/07/30 08:28:02;;;;;;;41.03;31.98;;;;;;;19.76;49.30;100771.94;10427258;28;20235;-81
2022/07/30 08:33:24;;;;;;;38.85;30.10;;;;;;;18.97;50.17;100782.16;10375871;28;70694;-78
2022/07/30 08:38:56;;;;;;;34.92;28.10;;;;;;;19.59;48.45;100776.19;10438512;27;1288485;-78
2022/07/30 08:44:20;;;;;;;33.90;27.05;;;;;;;18.82;51.02;100783.09;10414804;28;20211;-86
2022/07/30 08:49:45;;;;;;;35.33;26.88;;;;;;;19.70;48.42;100772.28;10332045;28;20999;-79
2022/07/30 08:55:12;;;;;;;31.20;25.88;;;;;;;20.19;46.12;100773.31;10375416;28;20252;-79
2022/07/30 09:00:34;;;;;;;34.30;25.60;;;;;;;20.00;47.15;100794.31;10377975;28;20259;-78
2022/07/30 09:05:55;;;;;;;37.13;25.92;;;;;;;20.35;45.65;100791.91;10361924;28;20322;-78
2022/07/30 09:11:18;;;;;;;34.25;26.23;;;;;;;21.25;44.39;100780.09;10357916;28;20286;-78
2022/07/30 09:16:41;;;;;;;34.22;27.70;;;;;;;20.57;44.66;100787.22;10359281;28;20248;-77
2022/07/30 09:22:05;;;;;;;31.85;26.23;;;;;;;21.06;44.23;100778.31;10358661;28;20224;-78
2022/07/30 09:27:56;;;;;;;30.73;23.45;;;;;;;19.94;45.01;100790.16;10325030;28;20270;-78
2022/07/30 09:33:40;;;;;;;25.00;20.27;;;;;;;20.89;42.11;100789.63;10367855;28;20282;-80
2022/07/30 09:39:31;;;;;;;26.85;20.85;;;;;;;20.93;41.43;100785.56;10370591;28;20321;-77
2022/07/30 09:45:12;;;;;;;23.73;18.80;;;;;;;21.44;40.66;100779.03;10346772;28;20228;-78
2022/07/30 09:50:46;;;;;;;25.65;19.23;;;;;;;21.62;41.40;100776.25;10340907;28;20260;-78
2022/07/30 09:56:23;;;;;;;23.00;15.25;;;;;;;21.66;40.31;100775.06;10319033;28;20245;-81
2022/07/30 10:01:50;;;;;;;15.77;13.40;;;;;;;21.18;40.36;100779.22;10343864;28;20228;-78
2022/07/30 10:07:49;;;;;;;17.70;12.55;;;;;;;21.82;39.46;100772.69;10334923;28;20307;-79
2022/07/30 10:13:13;;;;;;;26.23;13.13;;;;;;;20.91;41.07;100790.88;10338919;28;20233;-78
2022/07/30 10:18:36;;;;;;;16.30;12.13;;;;;;;21.31;40.04;100780.53;10334165;28;20597;-80
2022/07/30 10:24:17;;;;;;;17.42;11.48;;;;;;;21.32;39.22;100777.28;10362179;28;20290;-79
2022/07/30 10:30:18;;;;;;;20.80;9.90;;;;;;;22.24;38.14;100765.50;10210384;29;20290;-80
2022/07/30 10:35:41;;;;;;;19.92;11.05;;;;;;;20.86;40.16;100776.91;10318889;28;20287;-80
2022/07/30 10:41:14;;;;;;;16.55;12.20;;;;;;;22.72;37.14;100765.22;10337726;28;20212;-80
2022/07/30 10:47:09;;;;;;;16.25;12.75;;;;;;;22.49;37.10;100769.25;10334151;28;20228;-79
2022/07/30 10:52:49;;;;;;;18.17;12.10;;;;;;;22.73;37.18;100767.69;10338122;28;20346;-79
2022/07/30 10:58:12;;;;;;;21.92;14.80;;;;;;;22.53;36.95;100770.09;10352666;28;20245;-79
2022/07/30 11:03:34;;;;;;;20.63;11.57;;;;;;;22.37;36.63;100761.03;10329931;28;20519;-79
2022/07/30 11:08:57;;;;;;;14.20;10.25;;;;;;;22.57;34.85;100757.81;10348181;28;20213;-78
2022/07/30 11:14:19;;;;;;;10.27;8.90;;;;;;;22.03;36.85;100765.41;10347040;28;20193;-78
2022/07/30 11:20:10;;;;;;;15.70;9.27;;;;;;;22.44;35.29;100763.91;10346638;28;20606;-80
2022/07/30 11:25:32;;;;;;;12.13;7.65;;;;;;;22.73;35.60;100756.19;10342919;28;20213;-79
2022/07/30 11:30:55;;;;;;;11.70;7.32;;;;;;;21.32;36.47;100756.38;10344096;28;20437;-78
2022/07/30 11:36:18;;;;;;;12.77;6.30;;;;;;;22.42;35.44;100752.00;10342370;28;20244;-79
2022/07/30 11:41:40;;;;;;;9.55;6.70;;;;;;;22.94;34.32;100743.03;10330634;28;20216;-78
2022/07/30 11:47:02;;;;;;;7.70;5.65;;;;;;;22.54;35.25;100748.75;10332499;28;20248;-79
2022/07/30 11:52:24;;;;;;;8.38;5.00;;;;;;;21.68;36.17;100735.31;10362556;28;20232;-79
2022/07/30 11:57:46;;;;;;;7.18;4.53;;;;;;;22.65;34.98;100747.94;10344067;28;20295;-79
2022/07/30 12:03:15;;;;;;;5.43;4.28;;;;;;;22.84;34.00;100738.94;10328047;28;21073;-78
2022/07/30 12:08:44;;;;;;;8.55;4.07;;;;;;;22.94;32.10;100740.97;10345467;28;20236;-78
2022/07/30 12:14:07;;;;;;;6.18;3.40;;;;;;;23.42;31.08;100740.56;10348080;28;20197;-78
2022/07/30 12:19:29;;;;;;;8.70;3.90;;;;;;;23.20;31.81;100739.75;10344383;28;20291;-80
2022/07/30 12:24:51;;;;;;;3.80;3.17;;;;;;;23.17;31.30;100727.03;10356052;28;20224;-78
2022/07/30 12:30:16;;;;;;;3.92;3.00;;;;;;;23.74;30.21;100735.53;10338761;28;20232;-79
2022/07/30 12:35:43;;;;;;;8.63;2.97;;;;;;;23.81;28.34;100726.88;10334287;28;20279;-79
2022/07/30 12:41:05;;;;;;;7.03;2.97;;;;;;;23.95;29.55;100729.69;10338576;28;20228;-79
2022/07/30 12:46:27;;;;;;;6.07;2.42;;;;;;;24.21;28.58;100733.28;10354695;28;20221;-78
2022/07/30 12:51:52;;;;;;;3.05;2.40;;;;;;;23.06;29.60;100734.81;10322257;28;20283;-78
2022/07/30 12:57:14;;;;;;;8.93;2.60;;;;;;;24.21;27.88;100727.50;10332306;28;20337;-79
2022/07/30 13:02:36;;;;;;;5.03;2.40;;;;;;;23.92;28.54;100718.19;10325798;28;20260;-78
2022/07/30 13:07:59;;;;;;;4.65;2.55;;;;;;;24.24;26.63;100713.09;10338929;28;20260;-79
2022/07/30 13:13:21;;;;;;;6.78;2.10;;;;;;;24.34;28.03;100711.38;10359573;28;20240;-79
2022/07/30 13:18:44;;;;;;;5.88;2.40;;;;;;;23.87;26.78;100713.69;10326729;28;20283;-79
2022/07/30 13:24:07;;;;;;;6.03;2.30;;;;;;;23.20;28.35;100717.56;10338016;28;20228;-79
2022/07/30 13:29:29;;;;;;;6.18;2.75;;;;;;;24.13;27.83;100715.19;10337780;28;20583;-78
2022/07/30 13:34:52;;;;;;;5.22;2.05;;;;;;;24.77;27.85;100714.81;10349183;28;20253;-80
2022/07/30 13:40:15;;;;;;;11.27;1.90;;;;;;;24.20;27.56;100723.00;10341134;28;20220;-79
2022/07/30 13:45:38;;;;;;;6.43;2.15;;;;;;;23.73;27.39;100716.63;10329238;28;20233;-80
2022/07/30 13:51:01;;;;;;;4.05;1.17;;;;;;;24.07;24.73;100724.72;10346703;28;20586;-80
2022/07/30 13:56:29;;;;;;;4.85;1.10;;;;;;;24.68;25.89;100717.31;10354701;28;20237;-80
2022/07/30 14:01:52;;;;;;;3.67;1.20;;;;;;;23.55;25.23;100710.06;10351952;28;20283;-80
2022/07/30 14:07:14;;;;;;;3.13;1.05;;;;;;;23.72;26.90;100706.34;10350864;28;20314;-79
2022/07/30 14:12:36;;;;;;;5.38;1.42;;;;;;;24.00;26.53;100719.78;10351078;28;20230;-79
2022/07/30 14:17:59;;;;;;;3.30;1.13;;;;;;;24.02;26.54;100716.50;10357546;28;20307;-79
2022/07/30 14:23:21;;;;;;;7.53;1.10;;;;;;;23.91;26.60;100716.56;10333073;28;20626;-79
2022/07/30 14:28:44;;;;;;;4.32;1.25;;;;;;;24.78;26.55;100704.09;10346446;28;20270;-80
2022/07/30 14:34:06;;;;;;;2.80;0.90;;;;;;;24.30;27.20;100704.84;10353307;28;20311;-79
2022/07/30 14:39:31;;;;;;;3.95;1.00;;;;;;;24.46;26.77;100701.44;10355215;28;20252;-78
2022/07/30 14:44:53;;;;;;;3.90;0.80;;;;;;;24.19;28.18;100695.47;10346138;28;20224;-78
2022/07/30 14:50:15;;;;;;;3.10;0.88;;;;;;;24.13;27.23;100699.97;10334509;28;20225;-78
2022/07/30 14:55:37;;;;;;;3.25;1.10;;;;;;;23.61;27.66;100705.53;10342228;28;20327;-79
2022/07/30 15:00:59;;;;;;;3.08;1.35;;;;;;;24.23;26.55;100699.13;10339320;28;20663;-79
2022/07/30 15:06:22;;;;;;;3.45;1.20;;;;;;;24.12;27.11;100706.97;10352340;28;20290;-79
2022/07/30 15:11:44;;;;;;;1.20;0.85;;;;;;;23.89;27.18;100696.81;10326371;28;20575;-78
2022/07/30 15:17:07;;;;;;;3.25;0.93;;;;;;;24.34;27.50;100696.16;10351936;28;20287;-78
2022/07/30 15:22:29;;;;;;;2.30;1.08;;;;;;;23.67;27.12;100694.47;10344901;28;20220;-78
2022/07/30 15:27:51;;;;;;;2.35;0.70;;;;;;;23.25;27.60;100697.03;10340634;28;20216;-78
2022/07/30 15:33:13;;;;;;;3.35;0.98;;;;;;;24.35;26.50;100692.84;10326177;28;20217;-79
2022/07/30 15:38:36;;;;;;;2.70;0.98;;;;;;;24.30;26.68;100691.25;10347619;28;20367;-79
2022/07/30 15:43:58;;;;;;;3.00;0.80;;;;;;;24.17;27.28;100683.50;10352750;28;20224;-78
2022/07/30 15:49:20;;;;;;;4.85;0.80;;;;;;;24.08;26.96;100686.00;10349736;28;20244;-79
2022/07/30 15:54:42;;;;;;;1.17;0.82;;;;;;;23.41;27.99;100692.88;10336191;28;20259;-79
2022/07/30 16:00:07;;;;;;;2.65;0.90;;;;;;;23.41;26.92;100692.88;10357892;28;20302;-79
2022/07/30 16:05:29;;;;;;;1.15;0.68;;;;;;;23.67;27.52;100689.53;10342446;28;20256;-79
2022/07/30 16:10:51;;;;;;;2.20;0.93;;;;;;;23.63;27.91;100680.06;10338921;28;20286;-80
2022/07/30 16:16:13;;;;;;;1.40;0.85;;;;;;;23.32;27.76;100683.84;10351896;28;20241;-80
2022/07/30 16:21:35;;;;;;;1.13;0.82;;;;;;;22.65;28.24;100684.72;10351085;28;20232;-80
2022/07/30 16:26:58;;;;;;;4.00;0.85;;;;;;;23.78;27.73;100677.97;10350653;28;20275;-79
2022/07/30 16:32:20;;;;;;;3.63;2.50;;;;;;;23.31;28.16;100682.22;10320526;28;20237;-80
2022/07/30 16:37:42;;;;;;;2.28;1.58;;;;;;;23.31;27.75;100682.22;10302562;28;20254;-80
2022/07/30 16:43:06;;;;;;;2.05;0.90;;;;;;;22.95;28.77;100679.38;10311298;28;20225;-81
2022/07/30 16:48:30;;;;;;;3.88;2.13;;;;;;;23.31;28.85;100680.16;10294273;28;20233;-79
2022/07/30 16:53:53;;;;;;;2.75;1.00;;;;;;;23.58;28.08;100680.47;10311233;28;20276;-79
2022/07/30 16:59:16;;;;;;;3.10;1.00;;;;;;;23.27;28.51;100681.41;10322381;28;20317;-79
2022/07/30 17:04:38;;;;;;;1.48;0.85;;;;;;;22.46;29.28;100677.31;10323515;28;20633;-80
2022/07/30 17:10:00;;;;;;;1.50;0.93;;;;;;;22.77;29.27;100678.59;10303907;28;20530;-80
2022/07/30 17:15:23;;;;;;;2.45;0.90;;;;;;;23.38;28.99;100674.41;10320638;28;21337;-80
2022/07/30 17:20:45;;;;;;;3.67;0.90;;;;;;;23.60;28.46;100672.25;10318673;28;20591;-79
2022/07/30 17:26:09;;;;;;;3.25;0.80;;;;;;;23.32;28.66;100680.97;10303849;28;20225;-85
2022/07/30 17:31:31;;;;;;;4.68;2.70;;;;;;;22.78;29.58;100683.09;10307462;28;20729;-85
2022/07/30 17:36:54;;;;;;;3.78;1.27;;;;;;;23.01;29.55;100686.38;10339229;28;20317;-81
2022/07/30 17:42:17;;;;;;;2.67;1.20;;;;;;;23.31;29.38;100687.97;10335300;28;20233;-79
2022/07/30 17:47:39;;;;;;;2.65;0.90;;;;;;;23.03;29.16;100692.50;10323858;28;20238;-79
2022/07/30 17:53:04;;;;;;;2.28;1.10;;;;;;;22.90;30.01;100697.03;10356152;28;20193;-81
2022/07/30 17:58:26;;;;;;;2.13;1.40;;;;;;;22.68;30.17;100693.34;10337689;28;20370;-81
2022/07/30 18:03:49;;;;;;;2.53;2.33;;;;;;;23.08;30.01;100697.84;10347581;28;20269;-80
2022/07/30 18:09:11;;;;;;;2.78;0.88;;;;;;;22.53;31.28;100708.91;10358132;28;20220;-80
2022/07/30 18:14:33;;;;;;;2.50;1.15;;;;;;;22.04;31.51;100716.22;10360586;28;20598;-80
2022/07/30 18:19:55;;;;;;;5.78;1.30;;;;;;;22.91;30.05;100710.19;10342334;28;20253;-80
2022/07/30 18:25:17;;;;;;;1.63;1.10;;;;;;;22.19;30.70;100714.22;10359154;28;20229;-81
2022/07/30 18:30:40;;;;;;;0.80;0.80;;;;;;;22.96;30.32;100717.56;10347978;28;20664;-81
2022/07/30 18:36:02;;;;;;;1.38;0.88;;;;;;;22.32;31.36;100723.25;10347187;28;20276;-80
2022/07/30 18:41:24;;;;;;;1.75;1.00;;;;;;;23.10;30.39;100726.22;10359148;28;20270;-81
2022/07/30 18:46:46;;;;;;;4.53;1.27;;;;;;;22.70;30.46;100734.00;10335450;28;20303;-79
2022/07/30 18:52:09;;;;;;;2.53;1.20;;;;;;;21.73;32.47;100737.00;10328847;28;20283;-80
2022/07/30 18:57:31;;;;;;;4.32;1.33;;;;;;;22.46;31.22;100732.72;10353656;28;20232;-80
2022/07/30 19:02:53;;;;;;;3.03;1.20;;;;;;;22.31;31.39;100738.84;10338841;28;20247;-79
2022/07/30 19:08:16;;;;;;;3.90;1.17;;;;;;;22.54;31.32;100736.44;10354787;28;20314;-79
2022/07/30 19:13:39;;;;;;;3.13;1.20;;;;;;;22.18;32.39;100747.00;10357484;28;20557;-78
2022/07/30 19:19:01;;;;;;;4.97;3.47;;;;;;;22.60;31.67;100746.31;10355618;28;20614;-79
2022/07/30 19:24:23;;;;;;;3.42;1.77;;;;;;;22.62;31.92;100745.91;10341067;28;20224;-79
2022/07/30 19:29:45;;;;;;;10.98;4.70;;;;;;;22.54;31.90;100743.00;10342450;28;20605;-79
2022/07/30 19:35:08;;;;;;;3.92;1.30;;;;;;;22.43;32.24;100752.81;10344056;28;20321;-79
2022/07/30 19:40:30;;;;;;;7.93;1.40;;;;;;;22.24;33.15;100753.19;10346689;28;20256;-78
2022/07/30 19:45:53;;;;;;;6.55;1.33;;;;;;;22.31;31.54;100744.59;10344203;28;20303;-80
2022/07/30 19:51:15;;;;;;;24.08;2.10;;;;;;;22.42;32.39;100749.13;10362512;28;20603;-80
2022/07/30 19:56:37;;;;;;;17.17;1.67;;;;;;;22.25;32.49;100767.13;10345539;28;20225;-79
2022/07/30 20:01:59;;;;;;;5.00;1.40;;;;;;;22.18;32.33;100770.00;10342815;28;20217;-80
2022/07/30 20:07:22;;;;;;;10.75;1.60;;;;;;;22.33;32.64;100771.69;10342341;28;20237;-80
2022/07/30 20:12:47;;;;;;;3.38;1.10;;;;;;;22.17;32.57;100766.28;10340236;28;20221;-79
2022/07/30 20:18:09;;;;;;;8.30;1.45;;;;;;;22.27;32.87;100772.47;10351166;28;20614;-80
2022/07/30 20:23:31;;;;;;;5.68;1.45;;;;;;;21.92;33.41;100778.88;10360494;28;20283;-80
2022/07/30 20:28:54;;;;;;;4.25;0.90;;;;;;;21.66;33.65;100786.53;10361162;28;20224;-79
2022/07/30 20:34:19;;;;;;;4.22;1.35;;;;;;;21.66;34.17;100783.66;10340999;28;20546;-80
2022/07/30 20:39:42;;;;;;;2.97;1.50;;;;;;;21.66;34.13;100783.66;10330821;28;20240;-79
2022/07/30 20:45:04;;;;;;;1.40;1.27;;;;;;;21.89;33.89;100788.28;10336838;28;20351;-80
2022/07/30 20:50:27;;;;;;;4.22;1.73;;;;;;;21.82;34.51;100795.66;10313565;28;20275;-79
2022/07/30 20:55:49;;;;;;;5.25;1.60;;;;;;;21.71;34.99;100802.56;10340498;28;20225;-81
2022/07/30 21:01:12;;;;;;;6.05;1.77;;;;;;;21.69;35.67;100799.25;10355182;28;20252;-81
2022/07/30 21:06:43;;;;;;;5.75;1.60;;;;;;;21.56;34.84;100812.28;10343852;28;20244;-80
2022/07/30 21:12:05;;;;;;;4.22;1.40;;;;;;;22.42;34.33;100806.56;10345390;28;20225;-80
2022/07/30 21:17:27;;;;;;;4.10;1.77;;;;;;;22.60;33.97;100802.97;10356262;28;20306;-81
2022/07/30 21:22:49;;;;;;;4.78;1.50;;;;;;;22.62;34.18;100791.88;10348633;28;20310;-81
2022/07/30 21:28:15;;;;;;;6.72;1.77;;;;;;;22.28;34.58;100792.16;10329842;28;20316;-80
2022/07/30 21:33:38;;;;;;;4.93;1.25;;;;;;;20.97;36.64;100800.75;10342566;28;20225;-80
2022/07/30 21:39:01;;;;;;;3.95;0.98;;;;;;;21.26;36.57;100793.19;10313367;28;21066;-80
2022/07/30 21:44:23;;;;;;;4.57;1.10;;;;;;;21.11;36.25;100792.25;10333974;28;20368;-80
2022/07/30 21:49:45;;;;;;;4.38;1.25;;;;;;;21.24;36.47;100789.09;10342157;28;20701;-80
2022/07/30 21:55:08;;;;;;;1.85;1.00;;;;;;;21.11;36.58;100777.94;10354254;28;20244;-81
2022/07/30 22:00:48;;;;;;;3.42;1.27;;;;;;;20.77;36.70;100784.97;10349110;28;20241;-80
2022/07/30 22:06:11;;;;;;;3.63;1.00;;;;;;;21.02;36.45;100771.72;10339407;28;20256;-81
2022/07/30 22:11:33;;;;;;;3.60;1.10;;;;;;;21.06;36.08;100772.59;10342226;28;20226;-80
2022/07/30 22:16:55;;;;;;;1.05;0.82;;;;;;;20.84;37.43;100775.66;10337045;28;20282;-80
2022/07/30 22:22:18;;;;;;;2.13;1.10;;;;;;;21.34;36.25;100765.41;10339109;28;20762;-81
2022/07/30 22:27:49;;;;;;;4.05;1.30;;;;;;;22.08;34.86;100767.91;10339628;28;20697;-80
2022/07/30 22:33:14;;;;;;;1.63;1.20;;;;;;;22.07;34.35;100769.13;10308884;28;20284;-80
2022/07/30 22:38:37;;;;;;;4.45;1.05;;;;;;;22.33;33.13;100759.38;10350589;28;20610;-80
2022/07/30 22:43:59;;;;;;;3.25;1.25;;;;;;;22.24;33.60;100762.63;10345397;28;20498;-81
2022/07/30 22:49:22;;;;;;;5.38;1.38;;;;;;;22.35;33.07;100765.53;10339292;28;20220;-80
2022/07/30 22:54:44;;;;;;;2.80;1.27;;;;;;;22.44;33.23;100755.28;10357859;28;20228;-81
2022/07/30 23:00:10;;;;;;;4.43;1.38;;;;;;;22.35;33.41;100742.56;10347023;28;20241;-80
2022/07/30 23:05:32;;;;;;;5.80;1.10;;;;;;;22.23;32.78;100749.50;10338354;28;20256;-80
2022/07/30 23:10:55;;;;;;;2.42;1.13;;;;;;;22.31;33.83;100747.47;10349005;28;20205;-81
2022/07/30 23:16:17;;;;;;;2.72;1.00;;;;;;;22.15;33.92;100747.81;10344440;28;20201;-80
2022/07/30 23:21:39;;;;;;;3.63;1.05;;;;;;;22.23;34.18;100743.75;10357186;28;20276;-80
2022/07/30 23:27:01;;;;;;;1.88;1.13;;;;;;;22.11;34.15;100738.41;10338282;28;20271;-80
2022/07/30 23:32:23;;;;;;;1.63;0.80;;;;;;;21.43;35.47;100740.09;10337544;28;20271;-80
2022/07/30 23:37:46;;;;;;;2.10;1.00;;;;;;;22.02;33.91;100740.81;10356666;28;20314;-81
2022/07/30 23:43:08;;;;;;;1.20;0.90;;;;;;;21.98;34.73;100737.13;10329757;28;20280;-78
2022/07/30 23:48:30;;;;;;;3.22;0.88;;;;;;;21.72;35.01;100724.69;10348691;28;20287;-79
2022/07/30 23:53:52;;;;;;;3.55;1.20;;;;;;;20.44;37.16;100729.41;10337522;28;20232;-81
2022/07/30 23:59:15;;;;;;;1.88;0.95;;;;;;;20.42;37.71;100737.59;10336457;28;20244;-81
